weather.gov     
National Weather Service

Terminal Aerodrome Forecast
NWS Homepage
This page is being discontinued on March 12, 2014.
The same data is available at this site. Please update your bookmarks.
Thank you, and we apologize for the inconvenience.
Please send an email to SR-SRH.Webmaster@noaa.gov with any concerns.


Current Version
Previous Version:    01  02  03  04  05  06  07  08  09  10  11  12  13  14  15  16  17  18  19  20  21  22  23  24  25  26  27  28  29  30  
   31  32  33  34  35  36  37  38  39  40  41  42  43  
[Printable]
570
FTUS41 KBOX 220539
TAFBED
TAF
KBED 220539Z 2206/2306 24005KT 2SM BR BKN002
     FM220730 25004KT 5SM BR SCT002 BKN200
     FM220900 27010KT P6SM BKN080
     FM221100 26007KT P6SM SCT250
     FM221400 27011G20KT P6SM FEW250
     FM221800 28014G25KT P6SM SCT040
     FM230000 28007KT P6SM FEW250=




570
FTUS41 KBOX 220539
TAFBED
TAF
KBED 220539Z 2206/2306 24005KT 2SM BR BKN002
     FM220730 25004KT 5SM BR SCT002 BKN200
     FM220900 27010KT P6SM BKN080
     FM221100 26007KT P6SM SCT250
     FM221400 27011G20KT P6SM FEW250
     FM221800 28014G25KT P6SM SCT040
     FM230000 28007KT P6SM FEW250=


U.S. Dept. of Commerce
NOAA National Weather Service
1325 East West Highway
Silver Spring, MD 20910
E-mail: w-nws.webmaster@noaa.gov
Page last modified: May 16, 2007
NATIONAL WEATHER SERVICE: for Safety, for Work, for Fun - FOR LIFE